Time;durP1;ratioP1;P1;durP2;ratioP2;P2;SDS_P1;SDS_P2;PMS_P1;PMS_P2;Temp;Humidity;BMP_temperature;BMP_pressure;BME280_temperature;BME280_humidity;BME280_pressure;Samples;Min_cycle;Max_cycle;Signal;HPM_P1;HPM_P2
2022/04/27 00:01:21;;;;;;;11.73;6.50;;;;;;;6.43;70.86;102312.41;5091453;28;20072;-60
2022/04/27 00:03:46;;;;;;;11.63;7.10;;;;;;;6.41;70.91;102302.81;5091745;28;20545;-60
2022/04/27 00:06:12;;;;;;;10.40;6.88;;;;;;;6.38;70.68;102298.53;5091945;28;20116;-60
2022/04/27 00:08:38;;;;;;;12.27;6.55;;;;;;;6.37;70.84;102302.06;5091775;28;20035;-60
2022/04/27 00:11:03;;;;;;;10.50;6.68;;;;;;;6.34;70.58;102304.81;5091705;28;20036;-60
2022/04/27 00:13:29;;;;;;;8.45;6.55;;;;;;;6.32;70.81;102300.50;5106077;28;20051;-60
2022/04/27 00:15:54;;;;;;;8.82;6.80;;;;;;;6.30;71.13;102300.56;5105563;28;20043;-60
2022/04/27 00:18:19;;;;;;;11.50;7.30;;;;;;;6.24;71.28;102298.97;5091602;28;20055;-60
2022/04/27 00:20:45;;;;;;;8.48;6.75;;;;;;;6.21;71.50;102296.47;5090977;28;20040;-60
2022/04/27 00:23:11;;;;;;;10.32;7.30;;;;;;;6.16;70.85;102287.88;5091561;28;20047;-60
2022/04/27 00:25:36;;;;;;;9.13;7.22;;;;;;;6.15;71.46;102295.84;5090901;28;20036;-60
2022/04/27 00:28:02;;;;;;;11.43;8.15;;;;;;;6.13;71.71;102293.25;5091326;28;20032;-60
2022/04/27 00:30:27;;;;;;;13.88;9.20;;;;;;;6.11;71.22;102295.06;5091127;28;20115;-60
2022/04/27 00:32:52;;;;;;;12.75;8.88;;;;;;;6.06;71.58;102297.88;5091333;28;20036;-60
2022/04/27 00:35:17;;;;;;;8.90;7.30;;;;;;;6.05;71.50;102293.50;5091291;28;20039;-60
2022/04/27 00:37:43;;;;;;;9.70;7.63;;;;;;;6.03;71.78;102297.97;5091742;28;20031;-60
2022/04/27 00:40:09;;;;;;;11.55;8.02;;;;;;;5.99;71.85;102303.41;5108296;28;20070;-60
2022/04/27 00:42:34;;;;;;;9.25;7.95;;;;;;;5.96;71.98;102296.44;5101856;28;20409;-59
2022/04/27 00:45:00;;;;;;;9.88;7.97;;;;;;;5.94;71.94;102306.16;5093258;28;20378;-59
2022/04/27 00:47:28;;;;;;;10.05;8.02;;;;;;;5.86;72.30;102306.44;5111662;28;20039;-59
2022/04/27 00:49:53;;;;;;;9.60;8.20;;;;;;;5.80;72.42;102308.41;5099827;28;20445;-59
2022/04/27 00:52:20;;;;;;;10.35;7.93;;;;;;;5.77;72.29;102316.41;5090982;28;20039;-59
2022/04/27 00:54:48;;;;;;;12.68;8.68;;;;;;;5.72;72.81;102314.78;5090911;28;20040;-59
2022/04/27 00:57:14;;;;;;;13.73;8.50;;;;;;;5.71;72.29;102318.34;5109916;28;20032;-60
2022/04/27 00:59:40;;;;;;;10.05;8.18;;;;;;;5.67;72.51;102311.41;5096400;28;20086;-58
2022/04/27 01:02:06;;;;;;;13.23;8.63;;;;;;;5.64;72.74;102314.16;5072696;28;20115;-59
2022/04/27 01:04:36;;;;;;;13.85;8.82;;;;;;;5.56;73.05;102309.16;5090911;28;20036;-59
2022/04/27 01:07:03;;;;;;;11.70;8.80;;;;;;;5.51;72.82;102321.63;5090782;28;20036;-60
2022/04/27 01:09:30;;;;;;;13.98;9.20;;;;;;;5.45;73.66;102311.25;5090703;28;20441;-59
2022/04/27 01:11:57;;;;;;;13.35;9.57;;;;;;;5.40;73.65;102323.72;5090663;28;20089;-59
2022/04/27 01:14:23;;;;;;;11.13;9.02;;;;;;;5.38;73.22;102315.84;5109558;28;20040;-60
2022/04/27 01:16:53;;;;;;;13.13;10.07;;;;;;;5.32;73.62;102321.31;5090705;28;20443;-59
2022/04/27 01:19:19;;;;;;;12.68;10.13;;;;;;;5.31;73.99;102327.50;5090566;28;20102;-59
2022/04/27 01:21:46;;;;;;;15.20;10.10;;;;;;;5.27;74.11;102319.72;5090603;28;20074;-59
2022/04/27 01:24:12;;;;;;;15.65;10.77;;;;;;;5.28;74.21;102326.72;5090359;28;20028;-59
2022/04/27 01:26:37;;;;;;;13.52;9.80;;;;;;;5.24;73.89;102323.31;5090323;28;20066;-59
2022/04/27 01:29:03;;;;;;;14.10;10.30;;;;;;;5.24;74.00;102328.56;5090402;28;20086;-59
2022/04/27 01:31:28;;;;;;;14.18;10.20;;;;;;;5.20;74.12;102332.22;5090478;28;20032;-59
2022/04/27 01:33:55;;;;;;;13.63;10.45;;;;;;;5.21;73.74;102336.56;5093682;28;20398;-59
2022/04/27 01:36:20;;;;;;;14.50;10.88;;;;;;;5.15;74.23;102328.88;5094883;28;20405;-60
2022/04/27 01:38:46;;;;;;;16.80;11.00;;;;;;;5.09;74.52;102332.53;5094580;28;20036;-60
2022/04/27 01:41:11;;;;;;;11.30;9.85;;;;;;;5.12;73.96;102329.81;5094467;28;20058;-60
2022/04/27 01:43:37;;;;;;;14.20;10.48;;;;;;;5.07;74.38;102328.22;5094685;28;20036;-60
2022/04/27 01:46:05;;;;;;;18.60;10.30;;;;;;;5.02;74.56;102338.03;5076427;28;20036;-60
2022/04/27 01:48:31;;;;;;;13.07;10.65;;;;;;;5.01;74.58;102331.91;5114346;28;20036;-60
2022/04/27 01:50:56;;;;;;;13.38;10.15;;;;;;;4.97;74.33;102332.91;5095955;28;20043;-61
2022/04/27 01:56:06;;;;;;;12.65;9.68;;;;;;;4.94;74.77;102333.00;5094371;28;20460;-60
2022/04/27 01:58:32;;;;;;;11.88;10.43;;;;;;;4.92;75.16;102342.72;5094487;28;20036;-60
2022/04/27 02:00:57;;;;;;;14.63;11.48;;;;;;;4.86;74.69;102338.47;5094372;28;20127;-60
2022/04/27 02:03:23;;;;;;;15.63;11.27;;;;;;;4.85;74.43;102331.50;5094303;28;20036;-60
2022/04/27 02:05:49;;;;;;;12.45;11.15;;;;;;;4.79;74.88;102342.19;5094095;28;20512;-61
2022/04/27 02:08:15;;;;;;;14.15;11.32;;;;;;;4.78;75.14;102343.09;5094032;28;20032;-60
2022/04/27 02:10:41;;;;;;;15.30;11.40;;;;;;;4.77;75.31;102341.38;5093956;28;20147;-60
2022/04/27 02:13:07;;;;;;;13.45;11.10;;;;;;;4.75;75.58;102335.31;5094073;28;20530;-60
2022/04/27 02:15:33;;;;;;;18.42;12.10;;;;;;;4.71;75.73;102344.16;5093924;28;20417;-60
2022/04/27 02:17:59;;;;;;;14.25;11.13;;;;;;;4.71;75.54;102339.75;5091932;28;20039;-60
2022/04/27 02:20:24;;;;;;;13.95;11.13;;;;;;;4.68;75.91;102339.88;5093749;28;20047;-60
2022/04/27 02:22:50;;;;;;;19.38;12.00;;;;;;;4.69;75.62;102344.22;5093732;28;20036;-60
2022/04/27 02:25:17;;;;;;;15.57;11.73;;;;;;;4.68;75.22;102344.25;5093849;28;20482;-60
2022/04/27 02:27:43;;;;;;;16.13;11.52;;;;;;;4.61;75.73;102344.44;5093794;28;20378;-61
2022/04/27 02:30:10;;;;;;;20.80;11.90;;;;;;;4.61;76.74;102352.34;5093873;28;20127;-60
2022/04/27 02:32:35;;;;;;;16.38;12.25;;;;;;;4.60;76.75;102355.88;5093632;28;20481;-60
2022/04/27 02:35:00;;;;;;;16.35;11.90;;;;;;;4.62;76.19;102356.69;5093653;28;20119;-60
2022/04/27 02:37:26;;;;;;;16.02;11.60;;;;;;;4.63;76.30;102352.31;5093359;28;20058;-61
2022/04/27 02:39:51;;;;;;;13.23;11.77;;;;;;;4.64;76.46;102354.84;5095615;28;20052;-60
2022/04/27 02:42:17;;;;;;;15.02;11.30;;;;;;;4.65;76.02;102361.00;5113850;28;20054;-60
2022/04/27 02:44:43;;;;;;;18.00;13.00;;;;;;;4.64;76.45;102365.38;5112793;28;20036;-60
2022/04/27 02:47:08;;;;;;;16.08;12.85;;;;;;;4.66;76.69;102367.13;5110070;28;20057;-60
2022/04/27 02:52:18;;;;;;;16.33;14.02;;;;;;;4.64;77.08;102369.78;5105832;28;20459;-60
2022/04/27 02:54:43;;;;;;;15.48;13.35;;;;;;;4.63;76.47;102368.94;5093324;28;20266;-60
2022/04/27 02:57:08;;;;;;;16.42;13.07;;;;;;;4.62;76.16;102366.34;5093110;28;20090;-60
2022/04/27 02:59:34;;;;;;;15.95;12.43;;;;;;;4.57;76.17;102362.97;5093223;28;20068;-60
2022/04/27 03:02:00;;;;;;;17.02;14.30;;;;;;;4.60;76.57;102368.16;5092984;28;20078;-60
2022/04/27 03:04:25;;;;;;;16.75;13.77;;;;;;;4.60;76.39;102373.44;5092996;28;20046;-61
2022/04/27 03:06:51;;;;;;;18.00;14.32;;;;;;;4.55;76.93;102370.91;5092814;28;20397;-61
2022/04/27 03:09:16;;;;;;;18.83;14.75;;;;;;;4.52;76.82;102364.88;5093153;28;20051;-60
2022/04/27 03:11:41;;;;;;;17.25;14.43;;;;;;;4.51;77.02;102371.03;5092908;28;20482;-60
2022/04/27 03:14:07;;;;;;;16.40;14.23;;;;;;;4.47;77.32;102367.63;5092937;28;20049;-60
2022/04/27 03:16:32;;;;;;;18.35;15.40;;;;;;;4.46;76.86;102358.00;5074485;28;20044;-60
2022/04/27 03:18:57;;;;;;;21.02;14.63;;;;;;;4.46;76.90;102371.16;5092778;28;20405;-60
2022/04/27 03:21:23;;;;;;;21.77;14.57;;;;;;;4.44;77.12;102372.97;5092723;28;20040;-62
2022/04/27 03:23:48;;;;;;;19.38;14.93;;;;;;;4.44;76.90;102368.56;5093148;28;20054;-60
2022/04/27 03:26:13;;;;;;;20.33;14.75;;;;;;;4.42;76.16;102373.00;5092250;28;20097;-60
2022/04/27 03:28:38;;;;;;;19.13;14.40;;;;;;;4.40;76.38;102371.31;5092654;28;20044;-61
2022/04/27 03:31:04;;;;;;;19.80;15.80;;;;;;;4.34;77.20;102374.09;5092547;28;20074;-61
2022/04/27 03:33:29;;;;;;;20.73;15.60;;;;;;;4.30;77.43;102375.97;5092378;28;20437;-60
2022/04/27 03:35:54;;;;;;;17.95;15.15;;;;;;;4.27;77.48;102376.03;5092496;28;20052;-61
2022/04/27 03:38:20;;;;;;;17.65;14.50;;;;;;;4.23;77.11;102372.63;5090861;28;20044;-60
2022/04/27 03:40:48;;;;;;;20.05;15.00;;;;;;;4.23;77.12;102372.63;5091494;28;20060;-60
2022/04/27 03:43:15;;;;;;;19.55;16.35;;;;;;;4.23;76.91;102377.88;5090906;28;20131;-60
2022/04/27 03:45:40;;;;;;;19.48;15.75;;;;;;;4.20;76.73;102380.59;5092365;28;20028;-60
2022/04/27 03:48:06;;;;;;;19.17;15.90;;;;;;;4.14;77.52;102379.88;5096341;28;20043;-61
2022/04/27 03:50:31;;;;;;;18.40;16.00;;;;;;;4.12;77.35;102381.69;5092152;28;20399;-60
2022/04/27 03:52:58;;;;;;;17.98;15.40;;;;;;;4.11;77.50;102383.44;5074118;28;20032;-60
2022/04/27 03:55:23;;;;;;;18.85;15.52;;;;;;;4.10;77.57;102384.34;5073829;28;20036;-60
2022/04/27 03:57:48;;;;;;;19.40;16.33;;;;;;;4.08;77.45;102386.16;5090975;28;20071;-60
2022/04/27 04:00:13;;;;;;;20.40;15.65;;;;;;;4.05;77.42;102388.88;5090167;28;20032;-60
2022/04/27 04:02:39;;;;;;;16.95;14.73;;;;;;;4.03;77.44;102390.63;5089793;28;20085;-60
2022/04/27 04:05:05;;;;;;;19.25;15.80;;;;;;;4.00;77.65;102398.63;5090451;28;20500;-60
2022/04/27 04:07:31;;;;;;;18.13;15.82;;;;;;;4.00;77.29;102402.13;5071940;28;20123;-60
2022/04/27 04:09:57;;;;;;;19.65;15.55;;;;;;;3.99;77.35;102407.41;5089888;28;20119;-60
2022/04/27 04:12:22;;;;;;;20.95;16.73;;;;;;;3.97;77.48;102404.81;5090602;28;20036;-60
2022/04/27 04:14:47;;;;;;;20.48;16.27;;;;;;;3.97;77.55;102417.09;5091647;28;20044;-60
2022/04/27 04:17:13;;;;;;;21.60;16.67;;;;;;;3.95;76.77;102404.00;5091389;28;20119;-60
2022/04/27 04:19:39;;;;;;;24.75;17.25;;;;;;;3.92;77.58;102414.56;5090193;28;20032;-60
2022/04/27 04:22:04;;;;;;;23.40;17.85;;;;;;;3.88;77.66;102410.28;5091549;28;20055;-60
2022/04/27 04:24:29;;;;;;;20.02;16.52;;;;;;;3.86;77.54;102407.72;5091529;28;20078;-60
2022/04/27 04:29:39;;;;;;;19.83;16.70;;;;;;;3.79;77.99;102416.59;5071067;28;20059;-60
2022/04/27 04:32:04;;;;;;;21.77;17.45;;;;;;;3.81;78.40;102420.06;5071177;28;20040;-60
2022/04/27 04:34:29;;;;;;;20.23;16.52;;;;;;;3.78;78.00;102424.53;5069989;28;20044;-60
2022/04/27 04:36:55;;;;;;;19.83;16.88;;;;;;;3.77;78.11;102425.44;5071097;28;20032;-60
2022/04/27 04:39:20;;;;;;;22.48;17.67;;;;;;;3.75;78.15;102427.22;5069539;28;20481;-60
2022/04/27 04:41:46;;;;;;;19.05;17.05;;;;;;;3.72;78.26;102430.81;5070982;28;20032;-60
2022/04/27 04:44:11;;;;;;;19.83;16.30;;;;;;;3.76;78.43;102442.09;5072383;28;20416;-60
2022/04/27 04:46:36;;;;;;;22.67;17.30;;;;;;;3.76;78.34;102435.06;5089627;28;20121;-60
2022/04/27 04:49:02;;;;;;;22.67;17.42;;;;;;;3.77;78.38;102443.84;5091022;28;20036;-60
2022/04/27 04:51:27;;;;;;;24.20;17.70;;;;;;;3.75;78.90;102438.63;5091067;28;20083;-60
2022/04/27 04:53:53;;;;;;;20.90;17.65;;;;;;;3.73;79.27;102436.91;5091035;28;20486;-60
2022/04/27 04:56:18;;;;;;;26.40;18.00;;;;;;;3.72;79.28;102449.19;5089890;28;20226;-61
2022/04/27 04:58:44;;;;;;;23.08;17.52;;;;;;;3.73;79.25;102452.69;5072822;28;20158;-61
2022/04/27 05:01:09;;;;;;;23.25;17.42;;;;;;;3.72;79.25;102446.56;5090896;28;20039;-60
2022/04/27 05:03:37;;;;;;;21.63;17.98;;;;;;;3.74;79.46;102443.91;5087501;28;20039;-60
2022/04/27 05:06:03;;;;;;;21.50;17.45;;;;;;;3.77;79.74;102455.22;5069342;28;20041;-60
2022/04/27 05:08:28;;;;;;;19.58;17.27;;;;;;;3.79;79.49;102456.03;5070021;28;20402;-60
2022/04/27 05:10:53;;;;;;;23.05;18.20;;;;;;;3.83;80.12;102454.19;5070690;28;20040;-60
2022/04/27 05:13:19;;;;;;;19.13;17.10;;;;;;;3.87;80.16;102461.13;5083559;28;20024;-61
2022/04/27 05:15:44;;;;;;;20.20;18.05;;;;;;;3.92;80.49;102456.63;5091209;28;20032;-61
2022/04/27 05:18:09;;;;;;;23.02;18.17;;;;;;;4.00;80.30;102456.47;5071842;28;20044;-61
2022/04/27 05:20:37;;;;;;;21.42;17.90;;;;;;;4.10;79.94;102460.59;5070474;28;20040;-61
2022/04/27 05:23:02;;;;;;;21.92;18.52;;;;;;;4.18;80.54;102463.03;5070517;28;20063;-61
2022/04/27 05:25:27;;;;;;;21.95;17.83;;;;;;;4.32;79.83;102473.25;5080137;28;20031;-61
2022/04/27 05:27:53;;;;;;;21.05;17.20;;;;;;;4.41;79.81;102467.75;5090316;28;20418;-60
2022/04/27 05:33:02;;;;;;;21.45;16.70;;;;;;;4.68;78.96;102473.22;5090520;28;20050;-60
2022/04/27 05:35:27;;;;;;;20.40;17.75;;;;;;;4.75;79.03;102477.44;5090357;28;20036;-60
2022/04/27 05:37:53;;;;;;;19.85;17.30;;;;;;;4.84;78.99;102485.09;5090470;28;20036;-60
2022/04/27 05:40:18;;;;;;;19.90;17.75;;;;;;;4.93;79.37;102490.13;5090455;28;20038;-60
2022/04/27 05:42:45;;;;;;;20.70;18.00;;;;;;;5.00;79.04;102485.56;5090222;28;20040;-61
2022/04/27 05:45:10;;;;;;;21.45;17.85;;;;;;;5.07;78.57;102487.09;5090279;28;20068;-61
2022/04/27 05:47:36;;;;;;;22.65;18.42;;;;;;;5.11;79.56;102487.88;5102048;28;20433;-61
2022/04/27 05:50:04;;;;;;;21.83;18.13;;;;;;;5.14;79.62;102493.91;5110779;28;20477;-60
2022/04/27 05:52:29;;;;;;;21.38;18.15;;;;;;;5.18;80.04;102492.94;5095517;28;20481;-60
2022/04/27 05:54:55;;;;;;;23.10;18.35;;;;;;;5.23;79.96;102498.09;5090407;28;20115;-61
2022/04/27 05:57:20;;;;;;;20.45;15.10;;;;;;;5.25;80.15;102496.28;5072086;28;20488;-60
2022/04/27 05:59:47;;;;;;;20.83;15.68;;;;;;;5.31;80.27;102497.88;5090234;28;20035;-60
2022/04/27 06:02:12;;;;;;;24.05;17.08;;;;;;;5.35;80.15;102499.53;5090513;28;20032;-60
2022/04/27 06:04:37;;;;;;;20.08;16.20;;;;;;;5.40;80.05;102504.66;5090103;28;20521;-61
2022/04/27 06:07:04;;;;;;;20.38;15.85;;;;;;;5.44;79.95;102501.88;5090900;28;20047;-61
2022/04/27 06:09:29;;;;;;;23.58;16.23;;;;;;;5.49;79.90;102507.03;5091488;28;20451;-61
2022/04/27 06:11:55;;;;;;;18.92;15.27;;;;;;;5.54;79.99;102502.50;5109456;28;20027;-61
2022/04/27 06:14:20;;;;;;;20.20;15.45;;;;;;;5.61;80.42;102509.31;5110103;28;20071;-61
2022/04/27 06:16:45;;;;;;;22.70;14.93;;;;;;;5.66;80.25;102511.81;5103422;28;20043;-61
2022/04/27 06:19:11;;;;;;;17.48;14.85;;;;;;;5.70;79.88;102511.69;5108773;28;20043;-61
2022/04/27 06:21:37;;;;;;;20.73;14.05;;;;;;;5.80;80.00;102511.44;5104363;28;20036;-61
2022/04/27 06:24:04;;;;;;;18.55;14.63;;;;;;;5.88;79.97;102510.28;5095717;28;20478;-61
2022/04/27 06:26:33;;;;;;;18.90;14.70;;;;;;;5.97;79.73;102517.06;5093921;28;20036;-61
2022/04/27 06:28:59;;;;;;;17.80;13.88;;;;;;;6.05;80.10;102511.56;5093677;28;20032;-61
2022/04/27 06:31:24;;;;;;;21.60;14.07;;;;;;;6.13;79.86;102514.84;5075445;28;20032;-61
2022/04/27 06:33:49;;;;;;;16.35;13.75;;;;;;;6.24;79.46;102523.25;5092920;28;20032;-61
2022/04/27 06:36:15;;;;;;;18.38;13.68;;;;;;;6.34;79.39;102526.47;5092337;28;20046;-61
2022/04/27 06:38:40;;;;;;;20.02;13.88;;;;;;;6.46;79.52;102527.84;5092217;28;20035;-61
2022/04/27 06:41:05;;;;;;;18.58;14.32;;;;;;;6.59;79.39;102523.06;5092871;28;20139;-61
2022/04/27 06:43:31;;;;;;;14.07;11.63;;;;;;;6.66;78.55;102528.09;5093195;28;20044;-61
2022/04/27 06:45:58;;;;;;;17.83;13.02;;;;;;;6.76;77.83;102528.66;5093030;28;20474;-61
2022/04/27 06:48:23;;;;;;;14.52;12.18;;;;;;;6.92;78.42;102526.34;5100753;28;20032;-61
2022/04/27 06:50:49;;;;;;;20.65;12.10;;;;;;;7.01;77.48;102533.06;5096729;28;20069;-61
2022/04/27 06:53:14;;;;;;;19.17;12.95;;;;;;;7.20;77.67;102536.81;5113520;28;20119;-62
2022/04/27 06:55:39;;;;;;;17.20;12.18;;;;;;;7.38;77.78;102537.94;5098928;28;20032;-62
2022/04/27 06:58:05;;;;;;;20.35;12.38;;;;;;;7.58;76.78;102541.66;5092714;28;20401;-61
2022/04/27 07:00:30;;;;;;;16.42;11.35;;;;;;;7.81;75.44;102540.81;5092695;28;20044;-62
2022/04/27 07:02:55;;;;;;;14.75;11.00;;;;;;;8.02;73.84;102536.44;5092633;28;20486;-61
2022/04/27 07:05:24;;;;;;;11.57;9.43;;;;;;;8.29;71.59;102539.81;5074101;28;20074;-62
2022/04/27 07:07:49;;;;;;;16.92;10.25;;;;;;;8.56;71.50;102544.97;5082943;28;20085;-61
2022/04/27 07:10:15;;;;;;;16.80;10.93;;;;;;;8.80;69.17;102540.41;5092593;28;20040;-61
2022/04/27 07:12:42;;;;;;;17.83;10.00;;;;;;;9.08;69.23;102540.09;5072304;28;20540;-62
2022/04/27 07:15:08;;;;;;;14.40;9.35;;;;;;;9.38;66.93;102537.03;5091947;28;20036;-62
2022/04/27 07:17:34;;;;;;;12.60;9.73;;;;;;;9.74;66.78;102546.06;5092448;28;20047;-61
2022/04/27 07:19:59;;;;;;;12.23;8.18;;;;;;;10.08;64.95;102542.69;5092427;28;20043;-62
2022/04/27 07:22:24;;;;;;;16.77;9.13;;;;;;;10.41;63.81;102543.84;5109590;28;20114;-62
2022/04/27 07:24:49;;;;;;;14.57;8.30;;;;;;;10.67;61.56;102540.75;5101376;28;20659;-62
2022/04/27 07:27:16;;;;;;;13.15;7.95;;;;;;;10.97;60.01;102547.28;5089937;28;20105;-62
2022/04/27 07:29:41;;;;;;;12.43;7.43;;;;;;;11.30;58.93;102549.97;5091899;28;20481;-62
2022/04/27 07:32:06;;;;;;;13.65;8.20;;;;;;;11.58;59.33;102552.03;5073667;28;20028;-62
2022/04/27 07:34:32;;;;;;;10.15;6.78;;;;;;;11.90;56.85;102557.41;5091219;28;20505;-62
2022/04/27 07:36:58;;;;;;;14.25;7.30;;;;;;;12.13;57.44;102564.19;5090801;28;20036;-62
2022/04/27 07:39:24;;;;;;;11.57;7.07;;;;;;;12.34;55.05;102555.91;5090661;28;20057;-62
2022/04/27 07:41:49;;;;;;;12.35;7.25;;;;;;;12.74;55.79;102557.16;5094072;28;20043;-62
2022/04/27 07:44:14;;;;;;;10.70;7.03;;;;;;;12.95;54.29;102562.16;5092278;28;20036;-62
2022/04/27 07:46:40;;;;;;;8.38;6.18;;;;;;;13.12;51.37;102547.81;5074683;28;20622;-62
2022/04/27 07:49:05;;;;;;;10.57;6.07;;;;;;;13.56;51.25;102549.63;5092025;28;20044;-62
2022/04/27 07:51:30;;;;;;;12.97;5.67;;;;;;;13.76;48.24;102553.72;5083143;28;20042;-62
2022/04/27 07:53:56;;;;;;;9.02;4.55;;;;;;;14.01;47.98;102547.66;5093956;28;20371;-63
2022/04/27 07:56:21;;;;;;;8.07;4.75;;;;;;;14.08;46.58;102561.50;5092331;28;20051;-64
2022/04/27 07:58:46;;;;;;;9.57;4.50;;;;;;;14.25;45.46;102555.06;5090830;28;20040;-62
2022/04/27 08:01:11;;;;;;;9.07;4.90;;;;;;;14.56;45.85;102561.09;5091566;28;20044;-60
2022/04/27 08:03:37;;;;;;;6.30;3.30;;;;;;;14.61;42.12;102554.50;5092197;28;20285;-61
2022/04/27 08:06:04;;;;;;;6.55;3.85;;;;;;;14.79;43.16;102555.09;5091467;28;20028;-61
2022/04/27 08:08:30;;;;;;;7.22;4.15;;;;;;;14.99;42.60;102552.88;5107744;28;20076;-60
2022/04/27 08:10:56;;;;;;;7.03;3.00;;;;;;;15.20;41.87;102557.72;5110210;28;20486;-62
2022/04/27 08:13:21;;;;;;;7.28;3.78;;;;;;;15.45;43.01;102563.06;5111165;28;20110;-62
2022/04/27 08:15:46;;;;;;;6.88;4.05;;;;;;;15.63;40.82;102570.78;5111586;28;20044;-63
2022/04/27 08:18:12;;;;;;;4.35;3.05;;;;;;;15.92;38.85;102558.03;5105797;28;20032;-63
2022/04/27 08:23:24;;;;;;;7.82;3.00;;;;;;;16.24;37.96;102566.41;5107637;28;20047;-62
2022/04/27 08:25:50;;;;;;;7.80;3.85;;;;;;;16.43;38.12;102567.72;5111235;28;20077;-63
2022/04/27 08:28:17;;;;;;;9.35;4.57;;;;;;;16.62;38.80;102569.88;5111876;28;20092;-63
2022/04/27 08:30:44;;;;;;;6.68;4.10;;;;;;;16.93;37.97;102570.28;5110471;28;20045;-62
2022/04/27 08:33:11;;;;;;;6.53;4.28;;;;;;;17.24;39.13;102567.94;5113659;28;20039;-62
2022/04/27 08:35:37;;;;;;;9.00;4.13;;;;;;;17.23;36.72;102568.91;5113449;28;20031;-63
2022/04/27 08:38:04;;;;;;;8.18;3.85;;;;;;;17.25;37.50;102572.31;5113521;28;20110;-63
2022/04/27 08:40:30;;;;;;;6.90;4.40;;;;;;;17.34;36.87;102564.41;5096806;28;20486;-63
2022/04/27 08:42:56;;;;;;;10.80;4.30;;;;;;;17.38;37.29;102568.53;5092196;28;20039;-63
2022/04/27 08:45:22;;;;;;;5.65;4.45;;;;;;;17.71;37.93;102569.56;5093006;28;20032;-63
2022/04/27 08:47:49;;;;;;;6.30;4.30;;;;;;;17.86;37.13;102572.00;5101747;28;20036;-64
2022/04/27 08:50:20;;;;;;;4.82;3.80;;;;;;;18.06;36.22;102570.44;5090748;28;20078;-64
2022/04/27 08:52:46;;;;;;;7.05;4.00;;;;;;;18.10;35.46;102571.88;5090804;28;20040;-64
2022/04/27 08:55:13;;;;;;;5.80;3.97;;;;;;;18.22;35.20;102578.97;5085003;28;20049;-64
2022/04/27 08:57:39;;;;;;;7.28;4.40;;;;;;;18.50;35.40;102579.34;5110671;28;20137;-64
